sensor_id;sensor_type;location;lat;lon;timestamp;pressure;altitude;pressure_sealevel;temperature;humidity
35878;BME280;21982;49.804;24.072;2023-03-04T00:01:12;96976.03;;;1.25;65.30
35878;BME280;21982;49.804;24.072;2023-03-04T00:03:37;96939.41;;;0.98;65.61
35878;BME280;21982;49.804;24.072;2023-03-04T00:06:03;96949.00;;;1.17;65.08
35878;BME280;21982;49.804;24.072;2023-03-04T00:08:28;96982.50;;;1.31;65.15
35878;BME280;21982;49.804;24.072;2023-03-04T00:10:53;96888.38;;;0.86;65.10
35878;BME280;21982;49.804;24.072;2023-03-04T00:13:19;96969.31;;;1.32;65.03
35878;BME280;21982;49.804;24.072;2023-03-04T00:15:47;96886.03;;;0.73;64.77
35878;BME280;21982;49.804;24.072;2023-03-04T00:18:13;96853.41;;;0.59;64.78
35878;BME280;21982;49.804;24.072;2023-03-04T00:20:38;96970.69;;;1.27;64.92
35878;BME280;21982;49.804;24.072;2023-03-04T00:23:03;96967.69;;;1.31;65.32
35878;BME280;21982;49.804;24.072;2023-03-04T00:25:30;96946.81;;;1.31;64.73
35878;BME280;21982;49.804;24.072;2023-03-04T00:27:55;96926.50;;;1.06;64.73
35878;BME280;21982;49.804;24.072;2023-03-04T00:30:22;96802.53;;;0.36;65.29
35878;BME280;21982;49.804;24.072;2023-03-04T00:32:49;96914.41;;;1.05;65.07
35878;BME280;21982;49.804;24.072;2023-03-04T00:35:14;96780.34;;;0.32;64.84
35878;BME280;21982;49.804;24.072;2023-03-04T00:37:40;96757.31;;;0.18;64.94
35878;BME280;21982;49.804;24.072;2023-03-04T00:40:06;96925.38;;;1.38;64.50
35878;BME280;21982;49.804;24.072;2023-03-04T00:42:32;96782.28;;;0.30;64.42
35878;BME280;21982;49.804;24.072;2023-03-04T00:44:57;96923.19;;;1.14;64.83
35878;BME280;21982;49.804;24.072;2023-03-04T00:47:23;96875.47;;;0.84;65.10
35878;BME280;21982;49.804;24.072;2023-03-04T00:49:48;96860.13;;;0.91;64.82
35878;BME280;21982;49.804;24.072;2023-03-04T00:52:14;96732.66;;;0.12;64.94
35878;BME280;21982;49.804;24.072;2023-03-04T00:54:39;96839.97;;;0.54;64.99
35878;BME280;21982;49.804;24.072;2023-03-04T00:57:05;96909.50;;;1.02;64.75
35878;BME280;21982;49.804;24.072;2023-03-04T00:59:32;96902.34;;;1.04;64.83
35878;BME280;21982;49.804;24.072;2023-03-04T01:01:57;96684.16;;;-0.37;64.85
35878;BME280;21982;49.804;24.072;2023-03-04T01:04:23;96895.78;;;0.90;64.73
35878;BME280;21982;49.804;24.072;2023-03-04T01:06:48;96886.03;;;0.92;65.15
35878;BME280;21982;49.804;24.072;2023-03-04T01:09:13;96813.50;;;0.49;64.92
35878;BME280;21982;49.804;24.072;2023-03-04T01:11:40;96886.31;;;0.99;64.70
35878;BME280;21982;49.804;24.072;2023-03-04T01:14:05;96851.34;;;0.92;65.11
35878;BME280;21982;49.804;24.072;2023-03-04T01:16:31;96853.53;;;0.87;64.57
35878;BME280;21982;49.804;24.072;2023-03-04T01:18:57;96881.38;;;0.96;64.49
35878;BME280;21982;49.804;24.072;2023-03-04T01:21:22;96717.31;;;-0.10;64.84
35878;BME280;21982;49.804;24.072;2023-03-04T01:23:48;96862.34;;;0.66;64.70
35878;BME280;21982;49.804;24.072;2023-03-04T01:26:13;96666.78;;;-0.46;64.78
35878;BME280;21982;49.804;24.072;2023-03-04T01:28:38;96886.31;;;0.89;65.11
35878;BME280;21982;49.804;24.072;2023-03-04T01:31:04;96873.84;;;0.93;64.69
35878;BME280;21982;49.804;24.072;2023-03-04T01:33:31;96890.56;;;1.00;65.02
35878;BME280;21982;49.804;24.072;2023-03-04T01:35:56;96779.09;;;0.36;64.47
35878;BME280;21982;49.804;24.072;2023-03-04T01:38:22;96665.13;;;-0.28;64.64
35878;BME280;21982;49.804;24.072;2023-03-04T01:40:49;96885.75;;;1.05;64.72
35878;BME280;21982;49.804;24.072;2023-03-04T01:43:21;96786.50;;;0.60;64.51
35878;BME280;21982;49.804;24.072;2023-03-04T01:45:48;96869.53;;;1.11;64.63
35878;BME280;21982;49.804;24.072;2023-03-04T01:48:18;96861.50;;;0.95;64.50
35878;BME280;21982;49.804;24.072;2023-03-04T01:50:46;96718.69;;;0.23;64.45
35878;BME280;21982;49.804;24.072;2023-03-04T01:53:26;96786.78;;;0.47;64.00
35878;BME280;21982;49.804;24.072;2023-03-04T01:55:54;96823.63;;;0.91;64.75
35878;BME280;21982;49.804;24.072;2023-03-04T01:58:23;96854.75;;;1.02;64.23
35878;BME280;21982;49.804;24.072;2023-03-04T02:00:49;96775.41;;;0.48;64.39
35878;BME280;21982;49.804;24.072;2023-03-04T02:03:17;96816.78;;;0.80;64.72
35878;BME280;21982;49.804;24.072;2023-03-04T02:05:48;96842.00;;;0.99;64.69
35878;BME280;21982;49.804;24.072;2023-03-04T02:08:15;96795.66;;;0.74;64.61
35878;BME280;21982;49.804;24.072;2023-03-04T02:10:42;96838.66;;;1.07;64.33
35878;BME280;21982;49.804;24.072;2023-03-04T02:13:08;96837.56;;;1.09;64.21
35878;BME280;21982;49.804;24.072;2023-03-04T02:15:34;96745.91;;;0.57;64.27
35878;BME280;21982;49.804;24.072;2023-03-04T02:18:10;96641.16;;;-0.12;64.15
35878;BME280;21982;49.804;24.072;2023-03-04T02:26:17;96759.50;;;0.42;64.79
35878;BME280;21982;49.804;24.072;2023-03-04T02:28:44;96816.78;;;0.71;64.90
35878;BME280;21982;49.804;24.072;2023-03-04T02:31:34;96799.81;;;0.66;64.86
35878;BME280;21982;49.804;24.072;2023-03-04T02:34:03;96536.72;;;-0.94;65.00
35878;BME280;21982;49.804;24.072;2023-03-04T02:36:31;96800.34;;;0.60;65.04
35878;BME280;21982;49.804;24.072;2023-03-04T02:39:06;96799.38;;;0.61;64.78
35878;BME280;21982;49.804;24.072;2023-03-04T02:41:35;96759.22;;;0.35;65.15
35878;BME280;21982;49.804;24.072;2023-03-04T02:44:00;96786.78;;;0.47;64.85
35878;BME280;21982;49.804;24.072;2023-03-04T02:46:26;96789.38;;;0.47;65.09
35878;BME280;21982;49.804;24.072;2023-03-04T02:48:52;96768.69;;;0.36;64.85
35878;BME280;21982;49.804;24.072;2023-03-04T02:51:17;96539.03;;;-1.01;64.99
35878;BME280;21982;49.804;24.072;2023-03-04T02:53:42;96787.59;;;0.57;64.87
35878;BME280;21982;49.804;24.072;2023-03-04T02:56:08;96787.47;;;0.59;64.92
35878;BME280;21982;49.804;24.072;2023-03-04T02:58:33;96759.50;;;0.42;64.53
35878;BME280;21982;49.804;24.072;2023-03-04T03:00:59;96783.63;;;0.53;64.80
35878;BME280;21982;49.804;24.072;2023-03-04T03:03:25;96550.25;;;-1.10;64.70
35878;BME280;21982;49.804;24.072;2023-03-04T03:05:50;96688.41;;;-0.17;64.86
35878;BME280;21982;49.804;24.072;2023-03-04T03:08:17;96776.78;;;0.33;65.06
35878;BME280;21982;49.804;24.072;2023-03-04T03:10:43;96768.84;;;0.35;65.34
35878;BME280;21982;49.804;24.072;2023-03-04T03:13:08;96749.78;;;0.34;64.98
35878;BME280;21982;49.804;24.072;2023-03-04T03:15:33;96698.13;;;0.00;65.14
35878;BME280;21982;49.804;24.072;2023-03-04T03:17:59;96753.75;;;0.38;64.97
35878;BME280;21982;49.804;24.072;2023-03-04T03:20:24;96717.84;;;0.22;65.03
35878;BME280;21982;49.804;24.072;2023-03-04T03:22:50;96713.75;;;0.20;65.46
35878;BME280;21982;49.804;24.072;2023-03-04T03:25:16;96586.94;;;-0.65;65.09
35878;BME280;21982;49.804;24.072;2023-03-04T03:27:41;96739.47;;;0.42;65.38
35878;BME280;21982;49.804;24.072;2023-03-04T03:30:10;96641.44;;;-0.15;64.88
35878;BME280;21982;49.804;24.072;2023-03-04T03:32:35;96729.63;;;0.36;65.21
35878;BME280;21982;49.804;24.072;2023-03-04T03:35:01;96632.13;;;-0.18;65.09
35878;BME280;21982;49.804;24.072;2023-03-04T03:37:26;96741.94;;;0.53;65.30
35878;BME280;21982;49.804;24.072;2023-03-04T03:39:51;96730.97;;;0.50;65.30
35878;BME280;21982;49.804;24.072;2023-03-04T03:42:17;96737.84;;;0.41;65.31
35878;BME280;21982;49.804;24.072;2023-03-04T03:44:42;96615.56;;;-0.46;65.26
35878;BME280;21982;49.804;24.072;2023-03-04T03:47:08;96720.88;;;0.18;65.52
35878;BME280;21982;49.804;24.072;2023-03-04T03:49:33;96712.91;;;0.10;65.63
35878;BME280;21982;49.804;24.072;2023-03-04T03:51:58;96721.69;;;0.09;65.64
35878;BME280;21982;49.804;24.072;2023-03-04T03:54:24;96722.38;;;0.11;65.71
35878;BME280;21982;49.804;24.072;2023-03-04T03:56:49;96727.59;;;0.11;65.67
35878;BME280;21982;49.804;24.072;2023-03-04T03:59:14;96624.88;;;-0.53;65.33
35878;BME280;21982;49.804;24.072;2023-03-04T04:01:40;96681.25;;;-0.34;65.59
35878;BME280;21982;49.804;24.072;2023-03-04T04:04:05;96714.28;;;0.14;65.68
35878;BME280;21982;49.804;24.072;2023-03-04T04:06:31;96665.81;;;-0.16;65.76
35878;BME280;21982;49.804;24.072;2023-03-04T04:08:57;96710.03;;;0.22;65.68
35878;BME280;21982;49.804;24.072;2023-03-04T04:11:22;96643.22;;;-0.16;65.59
35878;BME280;21982;49.804;24.072;2023-03-04T04:13:47;96524.13;;;-0.99;65.68
35878;BME280;21982;49.804;24.072;2023-03-04T04:16:16;96570.41;;;-0.54;65.40
35878;BME280;21982;49.804;24.072;2023-03-04T04:18:41;96470.13;;;-1.15;65.73
35878;BME280;21982;49.804;24.072;2023-03-04T04:21:07;96711.28;;;0.18;65.90
35878;BME280;21982;49.804;24.072;2023-03-04T04:23:32;96704.69;;;0.14;65.82
35878;BME280;21982;49.804;24.072;2023-03-04T04:25:57;96589.97;;;-0.60;65.97
35878;BME280;21982;49.804;24.072;2023-03-04T04:28:23;96693.31;;;0.06;66.46
35878;BME280;21982;49.804;24.072;2023-03-04T04:30:49;96626.91;;;-0.27;66.17
35878;BME280;21982;49.804;24.072;2023-03-04T04:33:16;96582.31;;;-0.61;65.83
35878;BME280;21982;49.804;24.072;2023-03-04T04:35:41;96665.53;;;-0.13;66.16
35878;BME280;21982;49.804;24.072;2023-03-04T04:38:08;96637.63;;;-0.40;66.42
35878;BME280;21982;49.804;24.072;2023-03-04T04:40:33;96563.69;;;-0.86;66.39
35878;BME280;21982;49.804;24.072;2023-03-04T04:42:58;96668.69;;;-0.29;66.36
35878;BME280;21982;49.804;24.072;2023-03-04T04:45:24;96608.44;;;-0.63;66.59
35878;BME280;21982;49.804;24.072;2023-03-04T04:47:51;96652.81;;;-0.36;66.99
35878;BME280;21982;49.804;24.072;2023-03-04T04:50:16;96658.44;;;-0.40;66.76
35878;BME280;21982;49.804;24.072;2023-03-04T04:52:42;96645.97;;;-0.46;66.77
35878;BME280;21982;49.804;24.072;2023-03-04T04:55:07;96583.00;;;-0.79;66.85
35878;BME280;21982;49.804;24.072;2023-03-04T04:57:33;96527.84;;;-1.11;66.91
35878;BME280;21982;49.804;24.072;2023-03-04T04:59:59;96593.94;;;-0.75;66.92
35878;BME280;21982;49.804;24.072;2023-03-04T05:02:24;96626.78;;;-0.45;66.73
35878;BME280;21982;49.804;24.072;2023-03-04T05:04:50;96571.34;;;-0.84;66.92
35878;BME280;21982;49.804;24.072;2023-03-04T05:07:15;96609.00;;;-0.50;66.96
35878;BME280;21982;49.804;24.072;2023-03-04T05:09:40;96518.28;;;-1.11;66.74
35878;BME280;21982;49.804;24.072;2023-03-04T05:12:06;96560.66;;;-1.01;67.07
35878;BME280;21982;49.804;24.072;2023-03-04T05:14:31;96594.06;;;-0.67;66.86
35878;BME280;21982;49.804;24.072;2023-03-04T05:16:57;96454.78;;;-1.47;66.57
35878;BME280;21982;49.804;24.072;2023-03-04T05:19:28;96610.50;;;-0.47;66.78
35878;BME280;21982;49.804;24.072;2023-03-04T05:21:54;96476.66;;;-1.30;66.77
35878;BME280;21982;49.804;24.072;2023-03-04T05:24:19;96617.22;;;-0.45;66.72
35878;BME280;21982;49.804;24.072;2023-03-04T05:26:45;96476.00;;;-1.22;66.28
35878;BME280;21982;49.804;24.072;2023-03-04T05:29:11;96607.47;;;-0.33;66.65
35878;BME280;21982;49.804;24.072;2023-03-04T05:31:37;96602.53;;;-0.26;66.60
35878;BME280;21982;49.804;24.072;2023-03-04T05:34:02;96607.47;;;-0.23;66.48
35878;BME280;21982;49.804;24.072;2023-03-04T05:36:30;96547.69;;;-0.52;66.32
35878;BME280;21982;49.804;24.072;2023-03-04T05:38:56;96483.13;;;-1.05;66.55
35878;BME280;21982;49.804;24.072;2023-03-04T05:41:21;96602.97;;;-0.12;66.18
35878;BME280;21982;49.804;24.072;2023-03-04T05:43:48;96619.66;;;-0.05;66.61
35878;BME280;21982;49.804;24.072;2023-03-04T05:46:15;96616.19;;;0.05;66.44
35878;BME280;21982;49.804;24.072;2023-03-04T05:48:42;96544.81;;;-0.40;66.34
35878;BME280;21982;49.804;24.072;2023-03-04T05:51:08;96574.59;;;-0.15;66.15
35878;BME280;21982;49.804;24.072;2023-03-04T05:53:35;96509.91;;;-0.47;65.66
35878;BME280;21982;49.804;24.072;2023-03-04T05:56:12;96548.84;;;-0.08;65.46
35878;BME280;21982;49.804;24.072;2023-03-04T05:58:38;96494.44;;;-0.48;65.95
35878;BME280;21982;49.804;24.072;2023-03-04T06:01:04;96556.25;;;-0.04;65.75
35878;BME280;21982;49.804;24.072;2023-03-04T06:03:30;96549.41;;;-0.14;65.64
35878;BME280;21982;49.804;24.072;2023-03-04T06:05:56;96612.53;;;0.44;65.58
35878;BME280;21982;49.804;24.072;2023-03-04T06:08:23;96615.81;;;0.46;65.57
35878;BME280;21982;49.804;24.072;2023-03-04T06:10:51;96576.38;;;0.41;65.26
35878;BME280;21982;49.804;24.072;2023-03-04T06:13:17;96596.50;;;0.39;65.48
35878;BME280;21982;49.804;24.072;2023-03-04T06:15:45;96500.13;;;-0.16;65.44
35878;BME280;21982;49.804;24.072;2023-03-04T06:18:11;96599.63;;;0.52;65.26
35878;BME280;21982;49.804;24.072;2023-03-04T06:20:37;96517.00;;;0.08;65.50
35878;BME280;21982;49.804;24.072;2023-03-04T06:23:03;96443.66;;;-0.43;65.24
35878;BME280;21982;49.804;24.072;2023-03-04T06:25:29;96503.91;;;-0.01;65.21
35878;BME280;21982;49.804;24.072;2023-03-04T06:27:55;96586.66;;;0.70;64.96
35878;BME280;21982;49.804;24.072;2023-03-04T06:30:20;96537.31;;;0.41;65.13
35878;BME280;21982;49.804;24.072;2023-03-04T06:32:46;96493.81;;;0.24;64.67
35878;BME280;21982;49.804;24.072;2023-03-04T06:35:13;96491.38;;;0.13;64.82
35878;BME280;21982;49.804;24.072;2023-03-04T06:37:39;96570.84;;;0.81;64.28
35878;BME280;21982;49.804;24.072;2023-03-04T06:40:05;96480.00;;;0.14;64.66
35878;BME280;21982;49.804;24.072;2023-03-04T06:42:33;96397.97;;;-0.18;64.19
35878;BME280;21982;49.804;24.072;2023-03-04T06:44:59;96564.31;;;0.95;64.26
35878;BME280;21982;49.804;24.072;2023-03-04T06:47:24;96582.94;;;1.00;63.88
35878;BME280;21982;49.804;24.072;2023-03-04T06:49:49;96485.59;;;0.46;64.00
35878;BME280;21982;49.804;24.072;2023-03-04T06:52:15;96544.44;;;0.94;63.95
35878;BME280;21982;49.804;24.072;2023-03-04T06:54:40;96521.56;;;0.88;63.33
35878;BME280;21982;49.804;24.072;2023-03-04T06:57:06;96430.63;;;0.49;63.54
35878;BME280;21982;49.804;24.072;2023-03-04T06:59:32;96595.88;;;1.37;63.41
35878;BME280;21982;49.804;24.072;2023-03-04T07:01:57;96522.47;;;1.14;63.36
35878;BME280;21982;49.804;24.072;2023-03-04T07:04:22;96403.91;;;0.47;62.67
35878;BME280;21982;49.804;24.072;2023-03-04T07:06:49;96546.97;;;1.39;63.20
35878;BME280;21982;49.804;24.072;2023-03-04T07:09:14;96450.97;;;0.81;62.92
35878;BME280;21982;49.804;24.072;2023-03-04T07:11:40;96262.94;;;-0.39;62.60
35878;BME280;21982;49.804;24.072;2023-03-04T07:14:05;96456.22;;;0.72;62.81
35878;BME280;21982;49.804;24.072;2023-03-04T07:16:31;96558.22;;;1.57;62.71
35878;BME280;21982;49.804;24.072;2023-03-04T07:18:56;96553.75;;;1.67;62.57
35878;BME280;21982;49.804;24.072;2023-03-04T07:21:22;96543.47;;;1.66;62.63
35878;BME280;21982;49.804;24.072;2023-03-04T07:23:47;96561.59;;;1.93;62.55
35878;BME280;21982;49.804;24.072;2023-03-04T07:26:12;96343.19;;;0.64;62.71
35878;BME280;21982;49.804;24.072;2023-03-04T07:28:41;96549.22;;;1.95;61.90
35878;BME280;21982;49.804;24.072;2023-03-04T07:31:29;96509.56;;;1.74;61.96
35878;BME280;21982;49.804;24.072;2023-03-04T07:33:59;96591.41;;;2.09;61.39
35878;BME280;21982;49.804;24.072;2023-03-04T07:36:26;96586.84;;;2.11;62.33
35878;BME280;21982;49.804;24.072;2023-03-04T07:38:51;96576.75;;;2.16;62.14
35878;BME280;21982;49.804;24.072;2023-03-04T07:41:20;96583.69;;;2.25;61.72
35878;BME280;21982;49.804;24.072;2023-03-04T07:43:46;96582.72;;;2.26;61.36
35878;BME280;21982;49.804;24.072;2023-03-04T07:46:12;96568.88;;;2.33;61.41
35878;BME280;21982;49.804;24.072;2023-03-04T07:48:37;96520.19;;;1.98;61.61
35878;BME280;21982;49.804;24.072;2023-03-04T07:51:11;96501.34;;;1.87;61.13
35878;BME280;21982;49.804;24.072;2023-03-04T07:53:39;96576.06;;;2.31;61.32
35878;BME280;21982;49.804;24.072;2023-03-04T07:56:06;96569.09;;;2.40;61.77
35878;BME280;21982;49.804;24.072;2023-03-04T07:58:32;96559.63;;;2.47;61.13
35878;BME280;21982;49.804;24.072;2023-03-04T08:00:58;96570.91;;;2.48;61.50
35878;BME280;21982;49.804;24.072;2023-03-04T08:03:23;96575.97;;;2.49;61.01
35878;BME280;21982;49.804;24.072;2023-03-04T08:05:49;96497.78;;;2.22;60.85
35878;BME280;21982;49.804;24.072;2023-03-04T08:08:15;96551.22;;;2.61;60.80
35878;BME280;21982;49.804;24.072;2023-03-04T08:10:40;96467.91;;;2.16;60.99
35878;BME280;21982;49.804;24.072;2023-03-04T08:13:07;96481.75;;;2.51;60.46
35878;BME280;21982;49.804;24.072;2023-03-04T08:15:33;96568.69;;;3.03;60.29
35878;BME280;21982;49.804;24.072;2023-03-04T08:18:00;96450.25;;;2.60;60.01
35878;BME280;21982;49.804;24.072;2023-03-04T08:20:28;96592.69;;;3.73;60.16
35878;BME280;21982;49.804;24.072;2023-03-04T08:22:53;96539.50;;;4.05;59.64
35878;BME280;21982;49.804;24.072;2023-03-04T08:25:19;96515.09;;;4.60;59.02
35878;BME280;21982;49.804;24.072;2023-03-04T08:27:44;96570.25;;;5.90;57.70
35878;BME280;21982;49.804;24.072;2023-03-04T08:30:10;96489.41;;;6.45;56.46
35878;BME280;21982;49.804;24.072;2023-03-04T08:32:37;96475.56;;;6.87;54.54
35878;BME280;21982;49.804;24.072;2023-03-04T08:35:02;96493.84;;;7.73;53.00
35878;BME280;21982;49.804;24.072;2023-03-04T08:37:28;96472.72;;;7.46;52.01
35878;BME280;21982;49.804;24.072;2023-03-04T08:39:54;96578.19;;;8.44;52.41
35878;BME280;21982;49.804;24.072;2023-03-04T08:42:20;96571.47;;;9.11;51.28
35878;BME280;21982;49.804;24.072;2023-03-04T08:44:50;96574.13;;;9.65;49.76
35878;BME280;21982;49.804;24.072;2023-03-04T08:47:15;96491.66;;;8.67;48.75
35878;BME280;21982;49.804;24.072;2023-03-04T08:49:41;96557.03;;;7.88;49.43
35878;BME280;21982;49.804;24.072;2023-03-04T08:52:06;96542.53;;;6.69;50.65
35878;BME280;21982;49.804;24.072;2023-03-04T08:54:32;96549.53;;;6.48;51.78
35878;BME280;21982;49.804;24.072;2023-03-04T08:56:57;96563.03;;;7.39;52.52
35878;BME280;21982;49.804;24.072;2023-03-04T08:59:23;96413.13;;;7.17;51.55
35878;BME280;21982;49.804;24.072;2023-03-04T09:01:48;96534.25;;;8.30;50.73
35878;BME280;21982;49.804;24.072;2023-03-04T09:04:14;96468.81;;;7.84;49.85
35878;BME280;21982;49.804;24.072;2023-03-04T09:06:39;96481.31;;;8.03;49.27
35878;BME280;21982;49.804;24.072;2023-03-04T09:09:07;96548.88;;;7.62;48.62
35878;BME280;21982;49.804;24.072;2023-03-04T09:11:33;96505.69;;;6.69;49.71
35878;BME280;21982;49.804;24.072;2023-03-04T09:14:00;96531.66;;;6.43;50.41
35878;BME280;21982;49.804;24.072;2023-03-04T09:16:34;96549.69;;;6.31;52.69
35878;BME280;21982;49.804;24.072;2023-03-04T09:19:00;96558.06;;;6.79;51.59
35878;BME280;21982;49.804;24.072;2023-03-04T09:21:26;96464.22;;;6.86;51.17
35878;BME280;21982;49.804;24.072;2023-03-04T09:23:58;96476.94;;;7.61;49.81
35878;BME280;21982;49.804;24.072;2023-03-04T09:26:25;96410.81;;;7.84;48.97
35878;BME280;21982;49.804;24.072;2023-03-04T09:28:57;96465.28;;;8.05;48.41
35878;BME280;21982;49.804;24.072;2023-03-04T09:31:25;96419.84;;;7.47;48.01
35878;BME280;21982;49.804;24.072;2023-03-04T09:33:52;96554.22;;;8.73;48.03
35878;BME280;21982;49.804;24.072;2023-03-04T09:36:19;96555.34;;;8.92;47.21
35878;BME280;21982;49.804;24.072;2023-03-04T09:38:44;96511.22;;;8.80;46.86
35878;BME280;21982;49.804;24.072;2023-03-04T09:41:22;96555.41;;;9.73;45.42
35878;BME280;21982;49.804;24.072;2023-03-04T09:43:49;96560.75;;;9.99;45.80
35878;BME280;21982;49.804;24.072;2023-03-04T09:46:33;96539.19;;;10.22;45.16
35878;BME280;21982;49.804;24.072;2023-03-04T09:49:00;96500.53;;;10.28;44.33
35878;BME280;21982;49.804;24.072;2023-03-04T09:54:25;96560.25;;;10.95;43.94
35878;BME280;21982;49.804;24.072;2023-03-04T09:57:46;96516.94;;;10.69;43.44
35878;BME280;21982;49.804;24.072;2023-03-04T10:00:09;96420.16;;;9.89;43.66
35878;BME280;21982;49.804;24.072;2023-03-04T10:05:20;96571.28;;;10.79;43.22
35878;BME280;21982;49.804;24.072;2023-03-04T10:07:58;96548.09;;;11.32;42.88
35878;BME280;21982;49.804;24.072;2023-03-04T10:10:36;96498.59;;;11.57;42.16
35878;BME280;21982;49.804;24.072;2023-03-04T10:13:07;96410.91;;;11.27;41.52
35878;BME280;21982;49.804;24.072;2023-03-04T10:15:39;96550.63;;;12.21;40.84
35878;BME280;21982;49.804;24.072;2023-03-04T10:18:15;96549.25;;;12.62;40.68
35878;BME280;21982;49.804;24.072;2023-03-04T10:21:16;96539.81;;;12.84;40.61
35878;BME280;21982;49.804;24.072;2023-03-04T10:23:44;96511.16;;;12.50;40.37
35878;BME280;21982;49.804;24.072;2023-03-04T10:26:13;96502.84;;;12.64;39.91
35878;BME280;21982;49.804;24.072;2023-03-04T10:28:40;96503.28;;;12.43;39.81
35878;BME280;21982;49.804;24.072;2023-03-04T10:31:11;96511.03;;;12.99;39.91
35878;BME280;21982;49.804;24.072;2023-03-04T10:33:40;96454.94;;;12.89;39.59
35878;BME280;21982;49.804;24.072;2023-03-04T10:41:44;96514.66;;;13.53;38.74
35878;BME280;21982;49.804;24.072;2023-03-04T10:46:43;96504.34;;;13.75;37.64
35878;BME280;21982;49.804;24.072;2023-03-04T10:49:11;96396.69;;;13.06;37.83
35878;BME280;21982;49.804;24.072;2023-03-04T10:51:47;96518.19;;;13.35;37.56
35878;BME280;21982;49.804;24.072;2023-03-04T10:56:41;96384.06;;;12.17;38.55
35878;BME280;21982;49.804;24.072;2023-03-04T10:59:33;96483.06;;;13.15;38.38
35878;BME280;21982;49.804;24.072;2023-03-04T11:02:18;96399.56;;;12.38;38.07
35878;BME280;21982;49.804;24.072;2023-03-04T11:04:49;96363.69;;;11.92;38.27
35878;BME280;21982;49.804;24.072;2023-03-04T11:07:25;96412.47;;;11.66;38.58
35878;BME280;21982;49.804;24.072;2023-03-04T11:09:51;96503.63;;;11.72;38.77
35878;BME280;21982;49.804;24.072;2023-03-04T11:12:20;96398.59;;;10.70;39.35
35878;BME280;21982;49.804;24.072;2023-03-04T11:14:50;96458.22;;;11.24;39.23
35878;BME280;21982;49.804;24.072;2023-03-04T11:17:28;96421.06;;;10.54;39.32
35878;BME280;21982;49.804;24.072;2023-03-04T11:20:04;96457.72;;;11.40;39.12
35878;BME280;21982;49.804;24.072;2023-03-04T11:22:34;96477.13;;;11.34;38.92
35878;BME280;21982;49.804;24.072;2023-03-04T11:25:11;96393.75;;;10.60;39.13
35878;BME280;21982;49.804;24.072;2023-03-04T11:27:47;96493.00;;;11.40;39.10
35878;BME280;21982;49.804;24.072;2023-03-04T11:30:38;96471.88;;;11.59;38.69
35878;BME280;21982;49.804;24.072;2023-03-04T11:33:21;96485.09;;;11.97;39.01
35878;BME280;21982;49.804;24.072;2023-03-04T11:36:05;96454.16;;;12.70;37.92
35878;BME280;21982;49.804;24.072;2023-03-04T11:38:36;96464.81;;;12.82;37.53
35878;BME280;21982;49.804;24.072;2023-03-04T11:41:12;96454.59;;;12.67;37.10
35878;BME280;21982;49.804;24.072;2023-03-04T11:43:41;96467.94;;;12.43;37.63
35878;BME280;21982;49.804;24.072;2023-03-04T11:49:06;96464.53;;;12.90;36.56
35878;BME280;21982;49.804;24.072;2023-03-04T11:57:12;96296.75;;;12.75;36.34
35878;BME280;21982;49.804;24.072;2023-03-04T11:59:54;96468.59;;;13.71;36.37
35878;BME280;21982;49.804;24.072;2023-03-04T12:08:37;96425.13;;;13.35;36.80
35878;BME280;21982;49.804;24.072;2023-03-04T12:14:27;96442.66;;;13.66;35.94
35878;BME280;21982;49.804;24.072;2023-03-04T12:20:03;96392.69;;;13.15;35.78
35878;BME280;21982;49.804;24.072;2023-03-04T12:41:48;96414.47;;;12.39;36.36
35878;BME280;21982;49.804;24.072;2023-03-04T12:44:20;96332.63;;;11.74;36.40
35878;BME280;21982;49.804;24.072;2023-03-04T12:49:53;96423.31;;;12.69;35.88
35878;BME280;21982;49.804;24.072;2023-03-04T12:55:16;96413.28;;;12.35;36.27
35878;BME280;21982;49.804;24.072;2023-03-04T12:57:43;96230.66;;;11.09;36.79
35878;BME280;21982;49.804;24.072;2023-03-04T13:00:23;96403.75;;;12.09;36.47
35878;BME280;21982;49.804;24.072;2023-03-04T13:08:44;96390.81;;;11.69;36.52
35878;BME280;21982;49.804;24.072;2023-03-04T13:14:05;96199.84;;;9.95;36.90
35878;BME280;21982;49.804;24.072;2023-03-04T13:16:43;96407.53;;;11.14;37.23
35878;BME280;21982;49.804;24.072;2023-03-04T13:19:48;96396.81;;;11.02;37.46
35878;BME280;21982;49.804;24.072;2023-03-04T13:25:33;96389.19;;;11.12;37.37
35878;BME280;21982;49.804;24.072;2023-03-04T13:32:57;96390.22;;;10.22;38.00
35878;BME280;21982;49.804;24.072;2023-03-04T13:35:57;96390.81;;;10.24;38.29
35878;BME280;21982;49.804;24.072;2023-03-04T13:43:45;96365.28;;;9.52;38.65
35878;BME280;21982;49.804;24.072;2023-03-04T13:49:02;96351.84;;;8.94;39.31
35878;BME280;21982;49.804;24.072;2023-03-04T13:54:28;96375.50;;;8.54;39.01
35878;BME280;21982;49.804;24.072;2023-03-04T13:59:43;96269.25;;;7.37;40.02
35878;BME280;21982;49.804;24.072;2023-03-04T14:02:16;96366.91;;;7.70;40.45
35878;BME280;21982;49.804;24.072;2023-03-04T14:04:57;96376.50;;;7.78;40.41
35878;BME280;21982;49.804;24.072;2023-03-04T14:12:39;96345.31;;;6.40;41.70
35878;BME280;21982;49.804;24.072;2023-03-04T14:15:20;96379.19;;;6.14;42.29
35878;BME280;21982;49.804;24.072;2023-03-04T14:17:50;96285.25;;;5.42;42.91
35878;BME280;21982;49.804;24.072;2023-03-04T14:20:30;96336.72;;;5.28;43.01
35878;BME280;21982;49.804;24.072;2023-03-04T14:22:57;96362.16;;;5.28;43.79
35878;BME280;21982;49.804;24.072;2023-03-04T14:25:27;96358.59;;;5.06;44.35
35878;BME280;21982;49.804;24.072;2023-03-04T14:30:37;96358.00;;;4.50;44.59
35878;BME280;21982;49.804;24.072;2023-03-04T14:33:06;96385.75;;;4.67;45.31
35878;BME280;21982;49.804;24.072;2023-03-04T14:35:33;96258.78;;;3.85;45.33
35878;BME280;21982;49.804;24.072;2023-03-04T14:38:03;96369.53;;;4.41;45.90
35878;BME280;21982;49.804;24.072;2023-03-04T14:40:37;96322.25;;;3.95;45.76
35878;BME280;21982;49.804;24.072;2023-03-04T14:43:13;96375.25;;;4.14;46.17
35878;BME280;21982;49.804;24.072;2023-03-04T14:45:41;96346.84;;;3.86;46.68
35878;BME280;21982;49.804;24.072;2023-03-04T14:48:07;96332.38;;;3.59;46.74